Strona główna
METAR-TAF:

METAR-TAF

Lotnisko :

Morrisville-Stowe State Airport

Morrisville, Vermont, Stany Zjednoczone

Szerokość geograficzna: 44-32-10N, Długość geograficzna: 072-36-58W, wysokość: 223 m

Aktualna obserwacja pogody

Raport powstał 26 minut temu, godzina 21:54 UTC
Wiatr 7 kt od północ
Temperatura 12°C
Wilgotność 58%
Ciśnienie 1015 hPa
Widzialność: 16.1 km
Przerywane chmury na wysokości 5000 ft

METAR: KMVL 042154Z AUTO 35007KT 10SM BKN050 12/04 A2998 RMK AO2 SLP159 T01170039 $

czas: 18:20 (22:20 UTC)


TAF: brakujący

Obserwacja i prognoza pogody dla ponad 4000 lotnisk (raport METAR i TAF).

Dostępne stacje oznaczono żółtymi i czerwonymi punktami na mapie.

Najedź kursorem aby zobaczyć nazwę stacji.

Kliknij aby zobaczyć obserwacje i prognozy pogody.

Aby zmienić mapę: kliknij na zielony przycisk z czarnym krzyżykiem, aby powiększyć; na zielony przycisk z myślnikiem, aby pomniejszyć; na zielone strzałki, aby przejść do map sąsiednich.


METAR-TAF: